sensor_id;sensor_type;location;lat;lon;timestamp;pressure;altitude;pressure_sealevel;temperature;humidity
5455;BME280;2750;49.050;9.250;2022-07-23T00:01:08;98672.88;;;26.95;70.47
5455;BME280;2750;49.050;9.250;2022-07-23T00:06:11;98665.91;;;26.94;70.03
5455;BME280;2750;49.050;9.250;2022-07-23T00:11:12;98658.19;;;26.99;68.81
5455;BME280;2750;49.050;9.250;2022-07-23T00:16:14;98653.41;;;26.95;68.92
5455;BME280;2750;49.050;9.250;2022-07-23T00:21:17;98643.56;;;26.95;68.79
5455;BME280;2750;49.050;9.250;2022-07-23T00:26:18;98656.13;;;27.09;68.39
5455;BME280;2750;49.050;9.250;2022-07-23T00:31:19;98660.00;;;27.22;67.45
5455;BME280;2750;49.050;9.250;2022-07-23T00:36:22;98640.31;;;26.85;67.92
5455;BME280;2750;49.050;9.250;2022-07-23T00:41:24;98637.31;;;27.26;66.75
5455;BME280;2750;49.050;9.250;2022-07-23T00:46:25;98634.16;;;27.07;65.85
5455;BME280;2750;49.050;9.250;2022-07-23T00:51:28;98626.94;;;26.93;66.00
5455;BME280;2750;49.050;9.250;2022-07-23T00:56:30;98634.38;;;27.21;65.43
5455;BME280;2750;49.050;9.250;2022-07-23T01:01:32;98636.94;;;26.91;65.51
5455;BME280;2750;49.050;9.250;2022-07-23T01:06:36;98653.47;;;27.09;64.78
5455;BME280;2750;49.050;9.250;2022-07-23T01:11:38;98658.69;;;27.18;65.26
5455;BME280;2750;49.050;9.250;2022-07-23T01:16:40;98657.91;;;26.94;65.87
5455;BME280;2750;49.050;9.250;2022-07-23T01:21:45;98632.22;;;27.01;65.32
5455;BME280;2750;49.050;9.250;2022-07-23T01:26:48;98628.59;;;26.94;66.05
5455;BME280;2750;49.050;9.250;2022-07-23T01:31:50;98625.84;;;27.02;65.81
5455;BME280;2750;49.050;9.250;2022-07-23T01:36:51;98622.78;;;27.14;65.85
5455;BME280;2750;49.050;9.250;2022-07-23T01:41:54;98614.88;;;27.20;65.48
5455;BME280;2750;49.050;9.250;2022-07-23T01:46:55;98606.72;;;26.99;65.83
5455;BME280;2750;49.050;9.250;2022-07-23T01:51:57;98612.81;;;27.07;65.61
5455;BME280;2750;49.050;9.250;2022-07-23T01:57:03;98628.59;;;26.94;65.80
5455;BME280;2750;49.050;9.250;2022-07-23T02:02:04;98622.44;;;26.71;68.13
5455;BME280;2750;49.050;9.250;2022-07-23T02:07:06;98634.59;;;25.96;69.62
5455;BME280;2750;49.050;9.250;2022-07-23T02:12:09;98636.78;;;25.92;70.23
5455;BME280;2750;49.050;9.250;2022-07-23T02:17:10;98644.38;;;25.48;71.05
5455;BME280;2750;49.050;9.250;2022-07-23T02:22:12;98660.97;;;25.34;71.73
5455;BME280;2750;49.050;9.250;2022-07-23T02:27:14;98651.69;;;25.30;71.62
5455;BME280;2750;49.050;9.250;2022-07-23T02:32:16;98663.50;;;25.19;71.83
5455;BME280;2750;49.050;9.250;2022-07-23T02:37:17;98653.50;;;25.62;71.06
5455;BME280;2750;49.050;9.250;2022-07-23T02:42:20;98671.38;;;25.84;70.19
5455;BME280;2750;49.050;9.250;2022-07-23T02:47:23;98701.03;;;25.16;72.61
5455;BME280;2750;49.050;9.250;2022-07-23T02:52:25;98708.66;;;25.28;72.76
5455;BME280;2750;49.050;9.250;2022-07-23T02:57:28;98710.66;;;25.17;72.98
5455;BME280;2750;49.050;9.250;2022-07-23T03:02:29;98717.28;;;25.46;71.87
5455;BME280;2750;49.050;9.250;2022-07-23T03:07:31;98728.59;;;25.48;71.63
5455;BME280;2750;49.050;9.250;2022-07-23T03:12:48;98730.78;;;25.52;71.46
5455;BME280;2750;49.050;9.250;2022-07-23T03:17:50;98726.94;;;25.47;71.67
5455;BME280;2750;49.050;9.250;2022-07-23T03:22:51;98720.97;;;25.61;71.54
5455;BME280;2750;49.050;9.250;2022-07-23T03:27:54;98719.28;;;25.28;71.79
5455;BME280;2750;49.050;9.250;2022-07-23T03:32:56;98719.63;;;25.49;71.84
5455;BME280;2750;49.050;9.250;2022-07-23T03:37:57;98720.97;;;25.37;73.15
5455;BME280;2750;49.050;9.250;2022-07-23T03:43:00;98719.09;;;25.45;72.51
5455;BME280;2750;49.050;9.250;2022-07-23T03:48:02;98733.56;;;25.02;73.06
5455;BME280;2750;49.050;9.250;2022-07-23T03:53:03;98738.72;;;24.62;74.11
5455;BME280;2750;49.050;9.250;2022-07-23T03:58:06;98738.66;;;24.88;73.34
5455;BME280;2750;49.050;9.250;2022-07-23T04:03:07;98731.88;;;24.93;72.56
5455;BME280;2750;49.050;9.250;2022-07-23T04:08:09;98751.34;;;25.10;71.98
5455;BME280;2750;49.050;9.250;2022-07-23T04:13:12;98753.47;;;25.14;71.01
5455;BME280;2750;49.050;9.250;2022-07-23T04:18:13;98749.22;;;25.54;70.48
5455;BME280;2750;49.050;9.250;2022-07-23T04:23:17;98763.50;;;25.69;69.87
5455;BME280;2750;49.050;9.250;2022-07-23T04:28:20;98753.66;;;25.94;70.07
5455;BME280;2750;49.050;9.250;2022-07-23T04:33:21;98752.50;;;26.59;68.75
5455;BME280;2750;49.050;9.250;2022-07-23T04:38:23;98760.06;;;27.09;67.09
5455;BME280;2750;49.050;9.250;2022-07-23T04:43:26;98763.69;;;27.17;68.20
5455;BME280;2750;49.050;9.250;2022-07-23T04:48:27;98770.84;;;27.39;67.60
5455;BME280;2750;49.050;9.250;2022-07-23T04:53:29;98777.75;;;27.93;66.10
5455;BME280;2750;49.050;9.250;2022-07-23T04:58:32;98804.31;;;27.87;65.00
5455;BME280;2750;49.050;9.250;2022-07-23T05:03:33;98808.31;;;26.84;67.24
5455;BME280;2750;49.050;9.250;2022-07-23T05:08:35;98807.97;;;26.48;68.28
5455;BME280;2750;49.050;9.250;2022-07-23T05:13:38;98796.00;;;26.44;68.95
5455;BME280;2750;49.050;9.250;2022-07-23T05:18:39;98795.28;;;26.50;68.76
5455;BME280;2750;49.050;9.250;2022-07-23T05:23:41;98769.88;;;26.78;68.99
5455;BME280;2750;49.050;9.250;2022-07-23T05:28:44;98786.56;;;26.09;72.84
5455;BME280;2750;49.050;9.250;2022-07-23T05:33:46;98808.44;;;24.64;77.13
5455;BME280;2750;49.050;9.250;2022-07-23T05:38:47;98808.28;;;24.73;76.64
5455;BME280;2750;49.050;9.250;2022-07-23T05:43:50;98822.44;;;24.82;75.68
5455;BME280;2750;49.050;9.250;2022-07-23T05:48:51;98836.94;;;24.96;75.78
5455;BME280;2750;49.050;9.250;2022-07-23T05:53:53;98851.91;;;24.63;76.22
5455;BME280;2750;49.050;9.250;2022-07-23T05:58:56;98878.97;;;24.41;77.29
5455;BME280;2750;49.050;9.250;2022-07-23T06:03:57;98883.59;;;24.39;77.74
5455;BME280;2750;49.050;9.250;2022-07-23T06:08:59;98871.72;;;23.64;81.57
5455;BME280;2750;49.050;9.250;2022-07-23T06:14:02;98864.88;;;23.16;83.53
5455;BME280;2750;49.050;9.250;2022-07-23T06:19:04;98863.09;;;23.34;84.44
5455;BME280;2750;49.050;9.250;2022-07-23T06:24:06;98851.34;;;22.92;86.53
5455;BME280;2750;49.050;9.250;2022-07-23T06:29:08;98841.13;;;23.07;86.32
5455;BME280;2750;49.050;9.250;2022-07-23T06:34:10;98824.63;;;23.13;87.04
5455;BME280;2750;49.050;9.250;2022-07-23T06:39:12;98825.66;;;24.26;84.26
5455;BME280;2750;49.050;9.250;2022-07-23T06:44:14;98837.72;;;25.30;81.77
5455;BME280;2750;49.050;9.250;2022-07-23T06:49:16;98834.63;;;25.99;78.38
5455;BME280;2750;49.050;9.250;2022-07-23T06:54:17;98867.53;;;26.06;78.04
5455;BME280;2750;49.050;9.250;2022-07-23T06:59:20;98918.50;;;25.03;80.48
5455;BME280;2750;49.050;9.250;2022-07-23T07:04:22;98948.25;;;23.49;87.54
5455;BME280;2750;49.050;9.250;2022-07-23T07:09:23;98945.25;;;22.98;89.03
5455;BME280;2750;49.050;9.250;2022-07-23T07:14:26;98940.75;;;23.45;88.45
5455;BME280;2750;49.050;9.250;2022-07-23T07:19:28;98961.88;;;22.90;92.16
5455;BME280;2750;49.050;9.250;2022-07-23T07:24:29;98944.50;;;23.15;91.17
5455;BME280;2750;49.050;9.250;2022-07-23T07:29:32;98905.09;;;23.57;90.75
5455;BME280;2750;49.050;9.250;2022-07-23T07:34:33;98912.44;;;23.98;90.09
5455;BME280;2750;49.050;9.250;2022-07-23T07:39:35;98915.94;;;24.16;90.14
5455;BME280;2750;49.050;9.250;2022-07-23T07:44:38;98902.75;;;24.24;90.05
5455;BME280;2750;49.050;9.250;2022-07-23T07:49:39;98907.63;;;24.63;89.16
5455;BME280;2750;49.050;9.250;2022-07-23T07:54:41;98893.63;;;24.09;91.44
5455;BME280;2750;49.050;9.250;2022-07-23T07:59:44;98893.44;;;25.06;87.35
5455;BME280;2750;49.050;9.250;2022-07-23T08:04:45;98910.13;;;26.39;82.59
5455;BME280;2750;49.050;9.250;2022-07-23T08:09:48;98909.38;;;26.93;78.30
5455;BME280;2750;49.050;9.250;2022-07-23T08:14:51;98906.28;;;27.21;79.03
5455;BME280;2750;49.050;9.250;2022-07-23T08:19:53;98910.97;;;27.49;79.19
5455;BME280;2750;49.050;9.250;2022-07-23T08:24:55;98916.13;;;27.82;79.11
5455;BME280;2750;49.050;9.250;2022-07-23T08:29:58;98932.69;;;27.69;76.99
5455;BME280;2750;49.050;9.250;2022-07-23T08:34:59;98960.03;;;26.45;82.83
5455;BME280;2750;49.050;9.250;2022-07-23T08:40:01;98939.38;;;26.14;83.75
5455;BME280;2750;49.050;9.250;2022-07-23T08:45:07;98944.88;;;25.97;84.59
5455;BME280;2750;49.050;9.250;2022-07-23T08:50:10;98933.88;;;25.84;84.87
5455;BME280;2750;49.050;9.250;2022-07-23T08:55:12;98944.41;;;26.17;85.80
5455;BME280;2750;49.050;9.250;2022-07-23T09:00:15;98948.38;;;26.13;87.79
5455;BME280;2750;49.050;9.250;2022-07-23T09:05:17;98941.25;;;26.06;87.88
5455;BME280;2750;49.050;9.250;2022-07-23T09:10:19;98953.56;;;26.23;88.54
5455;BME280;2750;49.050;9.250;2022-07-23T09:15:22;98942.31;;;27.00;86.38
5455;BME280;2750;49.050;9.250;2022-07-23T09:20:24;98935.81;;;27.42;82.60
5455;BME280;2750;49.050;9.250;2022-07-23T09:25:25;98936.56;;;29.02;80.92
5455;BME280;2750;49.050;9.250;2022-07-23T09:30:30;98944.59;;;29.81;75.26
5455;BME280;2750;49.050;9.250;2022-07-23T09:35:45;98938.84;;;30.69;75.36
5455;BME280;2750;49.050;9.250;2022-07-23T09:41:05;98935.19;;;29.71;76.64
5455;BME280;2750;49.050;9.250;2022-07-23T09:46:18;98942.78;;;30.73;70.74
5455;BME280;2750;49.050;9.250;2022-07-23T09:51:20;98942.88;;;29.59;74.61
5455;BME280;2750;49.050;9.250;2022-07-23T09:56:27;98941.56;;;29.05;73.75
5455;BME280;2750;49.050;9.250;2022-07-23T10:01:31;98935.22;;;28.16;72.09
5455;BME280;2750;49.050;9.250;2022-07-23T10:06:33;98936.31;;;28.44;73.79
5455;BME280;2750;49.050;9.250;2022-07-23T10:11:35;98938.63;;;28.70;71.84
5455;BME280;2750;49.050;9.250;2022-07-23T10:16:39;98939.16;;;28.80;72.98
5455;BME280;2750;49.050;9.250;2022-07-23T10:21:45;98930.16;;;29.61;70.36
5455;BME280;2750;49.050;9.250;2022-07-23T10:26:54;98925.72;;;30.53;68.69
5455;BME280;2750;49.050;9.250;2022-07-23T10:32:07;98919.84;;;30.71;67.39
5455;BME280;2750;49.050;9.250;2022-07-23T10:37:14;98932.34;;;30.36;66.67
5455;BME280;2750;49.050;9.250;2022-07-23T10:42:20;98927.22;;;30.13;67.57
5455;BME280;2750;49.050;9.250;2022-07-23T10:47:28;98930.91;;;30.55;64.81
5455;BME280;2750;49.050;9.250;2022-07-23T10:53:09;98925.84;;;31.48;62.73
5455;BME280;2750;49.050;9.250;2022-07-23T10:58:18;98922.59;;;30.50;61.13
5455;BME280;2750;49.050;9.250;2022-07-23T11:03:32;98922.69;;;30.35;61.14
5455;BME280;2750;49.050;9.250;2022-07-23T11:08:37;98922.81;;;30.27;61.90
5455;BME280;2750;49.050;9.250;2022-07-23T11:13:48;98925.56;;;29.55;64.07
5455;BME280;2750;49.050;9.250;2022-07-23T11:19:09;98916.53;;;29.92;63.01
5455;BME280;2750;49.050;9.250;2022-07-23T11:24:12;98912.28;;;30.47;61.66
5455;BME280;2750;49.050;9.250;2022-07-23T11:29:42;98905.59;;;30.64;62.04
5455;BME280;2750;49.050;9.250;2022-07-23T11:34:46;98905.72;;;31.18;60.36
5455;BME280;2750;49.050;9.250;2022-07-23T11:39:48;98903.19;;;30.48;62.13
5455;BME280;2750;49.050;9.250;2022-07-23T11:44:53;98900.09;;;30.78;62.09
5455;BME280;2750;49.050;9.250;2022-07-23T11:49:58;98893.97;;;30.84;62.56
5455;BME280;2750;49.050;9.250;2022-07-23T11:55:03;98888.84;;;30.34;61.90
5455;BME280;2750;49.050;9.250;2022-07-23T12:00:07;98874.34;;;31.18;59.66
5455;BME280;2750;49.050;9.250;2022-07-23T12:05:13;98881.84;;;30.95;61.34
5455;BME280;2750;49.050;9.250;2022-07-23T12:10:17;98876.75;;;31.00;59.58
5455;BME280;2750;49.050;9.250;2022-07-23T12:15:20;98865.91;;;32.15;58.25
5455;BME280;2750;49.050;9.250;2022-07-23T12:20:26;98871.28;;;32.15;57.30
5455;BME280;2750;49.050;9.250;2022-07-23T12:25:29;98871.91;;;31.30;58.92
5455;BME280;2750;49.050;9.250;2022-07-23T12:30:36;98866.78;;;30.94;59.44
5455;BME280;2750;49.050;9.250;2022-07-23T12:35:41;98869.06;;;30.63;59.73
5455;BME280;2750;49.050;9.250;2022-07-23T12:40:44;98873.22;;;30.65;59.06
5455;BME280;2750;49.050;9.250;2022-07-23T12:45:48;98868.13;;;31.11;58.37
5455;BME280;2750;49.050;9.250;2022-07-23T12:50:54;98870.66;;;31.26;57.87
5455;BME280;2750;49.050;9.250;2022-07-23T12:56:01;98874.50;;;31.58;54.88
5455;BME280;2750;49.050;9.250;2022-07-23T13:01:04;98874.34;;;31.99;56.27
5455;BME280;2750;49.050;9.250;2022-07-23T13:06:10;98874.59;;;32.17;56.18
5455;BME280;2750;49.050;9.250;2022-07-23T13:11:11;98875.78;;;32.80;55.04
5455;BME280;2750;49.050;9.250;2022-07-23T13:16:13;98879.94;;;32.04;55.41
5455;BME280;2750;49.050;9.250;2022-07-23T13:21:16;98878.53;;;32.08;55.31
5455;BME280;2750;49.050;9.250;2022-07-23T13:26:18;98873.75;;;32.36;54.95
5455;BME280;2750;49.050;9.250;2022-07-23T13:31:20;98871.69;;;32.64;54.63
5455;BME280;2750;49.050;9.250;2022-07-23T13:36:22;98865.47;;;32.57;55.08
5455;BME280;2750;49.050;9.250;2022-07-23T13:41:24;98869.47;;;33.06;52.35
5455;BME280;2750;49.050;9.250;2022-07-23T13:46:25;98865.31;;;33.23;51.71
5455;BME280;2750;49.050;9.250;2022-07-23T13:51:28;98861.22;;;32.94;51.50
5455;BME280;2750;49.050;9.250;2022-07-23T13:56:30;98860.06;;;33.73;50.97
5455;BME280;2750;49.050;9.250;2022-07-23T14:01:31;98855.06;;;34.50;50.07
5455;BME280;2750;49.050;9.250;2022-07-23T14:06:37;98840.13;;;33.42;50.07
5455;BME280;2750;49.050;9.250;2022-07-23T14:11:38;98851.16;;;33.34;50.54
5455;BME280;2750;49.050;9.250;2022-07-23T14:16:39;98841.06;;;33.23;51.86
5455;BME280;2750;49.050;9.250;2022-07-23T14:21:42;98845.53;;;34.30;50.17
5455;BME280;2750;49.050;9.250;2022-07-23T14:26:44;98839.63;;;34.57;50.38
5455;BME280;2750;49.050;9.250;2022-07-23T14:31:46;98831.69;;;34.44;50.12
5455;BME280;2750;49.050;9.250;2022-07-23T14:36:50;98835.25;;;34.38;50.57
5455;BME280;2750;49.050;9.250;2022-07-23T14:41:52;98836.91;;;33.90;51.26
5455;BME280;2750;49.050;9.250;2022-07-23T14:46:53;98832.09;;;34.66;50.55
5455;BME280;2750;49.050;9.250;2022-07-23T14:51:56;98835.56;;;34.30;51.11
5455;BME280;2750;49.050;9.250;2022-07-23T14:56:58;98840.50;;;33.84;51.61
5455;BME280;2750;49.050;9.250;2022-07-23T15:02:00;98839.22;;;33.86;51.32
5455;BME280;2750;49.050;9.250;2022-07-23T15:07:04;98830.59;;;35.07;49.57
5455;BME280;2750;49.050;9.250;2022-07-23T15:12:06;98845.44;;;33.04;52.30
5455;BME280;2750;49.050;9.250;2022-07-23T15:17:09;98838.69;;;34.27;51.87
5455;BME280;2750;49.050;9.250;2022-07-23T15:22:13;98834.59;;;34.43;50.47
5455;BME280;2750;49.050;9.250;2022-07-23T15:27:14;98841.34;;;34.34;51.04
5455;BME280;2750;49.050;9.250;2022-07-23T15:32:17;98836.22;;;33.76;52.41
5455;BME280;2750;49.050;9.250;2022-07-23T15:37:20;98840.25;;;34.17;51.44
5455;BME280;2750;49.050;9.250;2022-07-23T15:42:23;98835.25;;;35.18;49.93
5455;BME280;2750;49.050;9.250;2022-07-23T15:47:24;98844.25;;;34.32;51.30
5455;BME280;2750;49.050;9.250;2022-07-23T15:52:27;98842.00;;;33.73;51.81
5455;BME280;2750;49.050;9.250;2022-07-23T15:57:29;98847.50;;;32.25;54.68
5455;BME280;2750;49.050;9.250;2022-07-23T16:02:30;98845.81;;;32.44;53.92
5455;BME280;2750;49.050;9.250;2022-07-23T16:07:33;98838.56;;;32.51;54.11
5455;BME280;2750;49.050;9.250;2022-07-23T16:12:37;98848.75;;;32.16;54.38
5455;BME280;2750;49.050;9.250;2022-07-23T16:17:38;98846.59;;;32.84;54.18
5455;BME280;2750;49.050;9.250;2022-07-23T16:22:41;98838.84;;;32.10;54.74
5455;BME280;2750;49.050;9.250;2022-07-23T16:27:43;98848.53;;;31.11;56.18
5455;BME280;2750;49.050;9.250;2022-07-23T16:32:44;98841.72;;;31.89;56.15
5455;BME280;2750;49.050;9.250;2022-07-23T16:37:47;98849.25;;;33.79;52.94
5455;BME280;2750;49.050;9.250;2022-07-23T16:42:48;98854.47;;;33.99;52.81
5455;BME280;2750;49.050;9.250;2022-07-23T16:47:50;98850.06;;;33.80;53.25
5455;BME280;2750;49.050;9.250;2022-07-23T16:52:53;98860.53;;;34.19;52.42
5455;BME280;2750;49.050;9.250;2022-07-23T16:57:54;98861.34;;;33.95;52.41
5455;BME280;2750;49.050;9.250;2022-07-23T17:02:56;98864.19;;;33.75;53.20
5455;BME280;2750;49.050;9.250;2022-07-23T17:08:02;98867.66;;;33.44;53.55
5455;BME280;2750;49.050;9.250;2022-07-23T17:13:03;98876.13;;;33.86;52.74
5455;BME280;2750;49.050;9.250;2022-07-23T17:18:05;98861.22;;;35.48;50.45
5455;BME280;2750;49.050;9.250;2022-07-23T17:23:09;98873.31;;;35.10;51.45
5455;BME280;2750;49.050;9.250;2022-07-23T17:28:11;98859.31;;;35.01;50.99
5455;BME280;2750;49.050;9.250;2022-07-23T17:33:12;98870.13;;;34.83;50.81
5455;BME280;2750;49.050;9.250;2022-07-23T17:38:15;98868.63;;;34.87;50.88
5455;BME280;2750;49.050;9.250;2022-07-23T17:43:17;98862.66;;;33.03;54.21
5455;BME280;2750;49.050;9.250;2022-07-23T17:48:18;98874.69;;;32.94;53.89
5455;BME280;2750;49.050;9.250;2022-07-23T17:53:21;98865.84;;;31.69;55.88
5455;BME280;2750;49.050;9.250;2022-07-23T17:58:23;98868.13;;;31.05;57.38
5455;BME280;2750;49.050;9.250;2022-07-23T18:03:25;98866.47;;;31.64;56.30
5455;BME280;2750;49.050;9.250;2022-07-23T18:08:28;98866.97;;;31.27;56.85
5455;BME280;2750;49.050;9.250;2022-07-23T18:13:30;98876.66;;;30.94;57.98
5455;BME280;2750;49.050;9.250;2022-07-23T18:18:31;98875.53;;;31.03;57.52
5455;BME280;2750;49.050;9.250;2022-07-23T18:23:37;98876.19;;;31.78;56.54
5455;BME280;2750;49.050;9.250;2022-07-23T18:28:39;98880.97;;;31.29;56.80
5455;BME280;2750;49.050;9.250;2022-07-23T18:33:40;98892.19;;;30.64;60.79
5455;BME280;2750;49.050;9.250;2022-07-23T18:38:43;98903.03;;;30.83;60.99
5455;BME280;2750;49.050;9.250;2022-07-23T18:43:44;98900.59;;;30.33;61.71
5455;BME280;2750;49.050;9.250;2022-07-23T18:48:48;98904.25;;;30.25;61.21
5455;BME280;2750;49.050;9.250;2022-07-23T18:53:50;98903.09;;;30.13;63.22
5455;BME280;2750;49.050;9.250;2022-07-23T18:58:52;98911.09;;;29.71;64.04
5455;BME280;2750;49.050;9.250;2022-07-23T19:03:53;98926.97;;;29.22;64.92
5455;BME280;2750;49.050;9.250;2022-07-23T19:08:56;98929.75;;;28.99;64.41
5455;BME280;2750;49.050;9.250;2022-07-23T19:13:58;98933.72;;;28.74;65.65
5455;BME280;2750;49.050;9.250;2022-07-23T19:19:00;98934.28;;;28.46;66.56
5455;BME280;2750;49.050;9.250;2022-07-23T19:24:03;98945.88;;;27.93;67.75
5455;BME280;2750;49.050;9.250;2022-07-23T19:29:05;98947.31;;;27.42;69.80
5455;BME280;2750;49.050;9.250;2022-07-23T19:34:06;98961.47;;;27.82;68.81
5455;BME280;2750;49.050;9.250;2022-07-23T19:39:09;98964.91;;;27.21;70.58
5455;BME280;2750;49.050;9.250;2022-07-23T19:44:10;98969.09;;;27.62;69.47
5455;BME280;2750;49.050;9.250;2022-07-23T19:49:12;98989.13;;;27.58;69.31
5455;BME280;2750;49.050;9.250;2022-07-23T19:54:15;98986.13;;;27.53;69.01
5455;BME280;2750;49.050;9.250;2022-07-23T19:59:16;98996.56;;;27.24;70.18
5455;BME280;2750;49.050;9.250;2022-07-23T20:04:18;98994.97;;;26.74;71.14
5455;BME280;2750;49.050;9.250;2022-07-23T20:09:21;98996.63;;;26.91;70.82
5455;BME280;2750;49.050;9.250;2022-07-23T20:14:23;99011.25;;;27.12;69.96
5455;BME280;2750;49.050;9.250;2022-07-23T20:19:24;99006.63;;;26.97;70.46
5455;BME280;2750;49.050;9.250;2022-07-23T20:24:27;99008.28;;;26.98;70.87
5455;BME280;2750;49.050;9.250;2022-07-23T20:29:29;99014.63;;;26.89;71.57
5455;BME280;2750;49.050;9.250;2022-07-23T20:34:30;99023.78;;;26.95;70.87
5455;BME280;2750;49.050;9.250;2022-07-23T20:39:33;99020.28;;;26.54;72.78
5455;BME280;2750;49.050;9.250;2022-07-23T20:44:35;99030.28;;;26.60;72.54
5455;BME280;2750;49.050;9.250;2022-07-23T20:49:36;99032.25;;;26.42;72.83
5455;BME280;2750;49.050;9.250;2022-07-23T20:54:39;99029.28;;;26.53;72.75
5455;BME280;2750;49.050;9.250;2022-07-23T20:59:40;99033.09;;;26.34;72.57
5455;BME280;2750;49.050;9.250;2022-07-23T21:04:43;99028.41;;;26.20;72.56
5455;BME280;2750;49.050;9.250;2022-07-23T21:09:46;99025.84;;;25.86;74.20
5455;BME280;2750;49.050;9.250;2022-07-23T21:14:48;99032.41;;;25.66;74.75
5455;BME280;2750;49.050;9.250;2022-07-23T21:19:50;99035.44;;;25.45;74.87
5455;BME280;2750;49.050;9.250;2022-07-23T21:24:52;99042.59;;;25.45;76.22
5455;BME280;2750;49.050;9.250;2022-07-23T21:29:54;99047.53;;;25.06;76.31
5455;BME280;2750;49.050;9.250;2022-07-23T21:34:55;99036.88;;;25.32;75.65
5455;BME280;2750;49.050;9.250;2022-07-23T21:39:58;99045.13;;;25.20;75.21
5455;BME280;2750;49.050;9.250;2022-07-23T21:45:00;99044.47;;;25.27;77.50
5455;BME280;2750;49.050;9.250;2022-07-23T21:50:01;99047.72;;;25.12;75.64
5455;BME280;2750;49.050;9.250;2022-07-23T21:55:06;99051.97;;;24.62;78.01
5455;BME280;2750;49.050;9.250;2022-07-23T22:00:11;99049.63;;;24.59;76.89
5455;BME280;2750;49.050;9.250;2022-07-23T22:05:13;99044.47;;;24.75;76.75
5455;BME280;2750;49.050;9.250;2022-07-23T22:10:16;99051.91;;;24.71;77.97
5455;BME280;2750;49.050;9.250;2022-07-23T22:15:18;99057.81;;;24.83;77.21
5455;BME280;2750;49.050;9.250;2022-07-23T22:20:19;99064.34;;;24.71;77.16
5455;BME280;2750;49.050;9.250;2022-07-23T22:25:23;99057.09;;;24.38;79.36
5455;BME280;2750;49.050;9.250;2022-07-23T22:30:25;99057.03;;;24.02;81.73
5455;BME280;2750;49.050;9.250;2022-07-23T22:35:26;99057.69;;;24.14;82.15
5455;BME280;2750;49.050;9.250;2022-07-23T22:40:29;99058.75;;;23.94;82.61
5455;BME280;2750;49.050;9.250;2022-07-23T22:45:31;99066.56;;;23.95;82.18
5455;BME280;2750;49.050;9.250;2022-07-23T22:50:32;99065.25;;;24.26;80.62
5455;BME280;2750;49.050;9.250;2022-07-23T22:55:35;99065.25;;;24.26;80.27
5455;BME280;2750;49.050;9.250;2022-07-23T23:00:37;99052.19;;;24.15;81.15
5455;BME280;2750;49.050;9.250;2022-07-23T23:05:38;99056.75;;;24.23;80.66
5455;BME280;2750;49.050;9.250;2022-07-23T23:10:41;99053.94;;;24.42;80.17
5455;BME280;2750;49.050;9.250;2022-07-23T23:15:42;99072.09;;;24.47;79.72
5455;BME280;2750;49.050;9.250;2022-07-23T23:20:44;99066.47;;;24.32;80.57
5455;BME280;2750;49.050;9.250;2022-07-23T23:25:47;99052.13;;;24.43;80.34
5455;BME280;2750;49.050;9.250;2022-07-23T23:30:48;99063.28;;;24.28;80.96
5455;BME280;2750;49.050;9.250;2022-07-23T23:35:52;99064.38;;;24.08;81.59
5455;BME280;2750;49.050;9.250;2022-07-23T23:40:55;99061.72;;;24.08;80.79
5455;BME280;2750;49.050;9.250;2022-07-23T23:45:57;99067.63;;;23.48;82.82
5455;BME280;2750;49.050;9.250;2022-07-23T23:50:58;99069.31;;;23.49;82.89
5455;BME280;2750;49.050;9.250;2022-07-23T23:56:02;99063.81;;;23.60;82.14
